Time;durP1;ratioP1;P1;durP2;ratioP2;P2;SDS_P1;SDS_P2;PMS_P1;PMS_P2;Temp;Humidity;BMP_temperature;BMP_pressure;BME280_temperature;BME280_humidity;BME280_pressure;Samples;Min_cycle;Max_cycle;Signal;HPM_P1;HPM_P2
2023/06/06 00:00:19;;;;;;;13.18;5.95;;;;;;;22.03;87.34;98083.03;4410908;32;20109;-80
2023/06/06 00:02:46;;;;;;;13.93;6.28;;;;;;;21.34;90.47;98072.50;4411493;32;20168;-80
2023/06/06 00:05:17;;;;;;;11.57;6.00;;;;;;;21.16;91.47;98072.25;4425085;32;20093;-80
2023/06/06 00:07:45;;;;;;;13.85;6.22;;;;;;;21.73;88.46;98076.06;4424742;32;20098;-80
2023/06/06 00:10:14;;;;;;;13.10;6.28;;;;;;;22.76;83.45;98079.06;4410966;32;20171;-80
2023/06/06 00:12:41;;;;;;;11.50;5.82;;;;;;;23.28;78.46;98081.28;4425093;32;20135;-80
2023/06/06 00:15:09;;;;;;;12.32;5.90;;;;;;;22.38;82.78;98081.72;4424741;32;20104;-80
2023/06/06 00:17:38;;;;;;;11.02;5.95;;;;;;;22.49;83.35;98079.75;4425050;32;20152;-80
2023/06/06 00:20:08;;;;;;;11.90;5.62;;;;;;;22.32;83.67;98082.25;4424925;32;20101;-80
2023/06/06 00:22:36;;;;;;;11.77;6.07;;;;;;;22.09;85.64;98079.87;4424751;32;20086;-80
2023/06/06 00:25:04;;;;;;;13.13;6.43;;;;;;;22.54;82.08;98079.31;4424814;32;20460;-80
2023/06/06 00:27:33;;;;;;;12.32;6.15;;;;;;;21.49;88.15;98079.06;4424852;32;20170;-80
2023/06/06 00:30:00;;;;;;;12.30;5.70;;;;;;;21.59;87.31;98079.91;4424694;32;20444;-80
2023/06/06 00:32:27;;;;;;;11.98;5.85;;;;;;;22.19;83.83;98083.34;4424928;32;20085;-80
2023/06/06 00:34:55;;;;;;;11.20;6.00;;;;;;;23.37;76.21;98083.88;4424541;32;20831;-80
2023/06/06 00:37:22;;;;;;;10.73;5.30;;;;;;;23.38;76.22;98087.31;4411027;32;20106;-80
2023/06/06 00:39:49;;;;;;;12.00;5.18;;;;;;;23.11;78.30;98074.16;4424666;32;20101;-80
2023/06/06 00:42:16;;;;;;;12.07;5.47;;;;;;;21.64;85.99;98074.25;4424414;32;20145;-80
2023/06/06 00:44:43;;;;;;;12.73;6.40;;;;;;;21.92;85.21;98070.03;4424705;32;20122;-80
2023/06/06 00:47:11;;;;;;;10.50;5.40;;;;;;;20.55;94.91;98071.34;4424686;32;20082;-80
2023/06/06 00:49:38;;;;;;;16.35;5.93;;;;;;;22.30;83.08;98069.25;4410165;32;20452;-80
2023/06/06 00:52:06;;;;;;;10.90;5.30;;;;;;;22.45;81.61;98069.69;4410930;32;20082;-80
2023/06/06 00:54:34;;;;;;;12.18;5.45;;;;;;;21.92;83.67;98060.34;4425118;32;20158;-80
2023/06/06 00:57:03;;;;;;;11.57;5.05;;;;;;;22.10;83.78;98051.81;4426045;32;20090;-80
2023/06/06 00:59:30;;;;;;;10.98;5.15;;;;;;;20.69;91.55;98044.81;4412632;32;20106;-80
2023/06/06 01:01:58;;;;;;;12.30;5.78;;;;;;;20.51;93.86;98041.91;4412564;32;20350;-80
2023/06/06 01:04:26;;;;;;;11.18;5.15;;;;;;;21.59;87.99;98051.03;4412618;32;20078;-80
2023/06/06 01:06:53;;;;;;;12.35;5.20;;;;;;;20.95;90.72;98040.81;4426403;32;20089;-80
2023/06/06 01:09:20;;;;;;;11.38;5.10;;;;;;;21.21;90.69;98043.81;4425812;32;20093;-80
2023/06/06 01:11:47;;;;;;;11.25;5.30;;;;;;;20.62;92.38;98041.03;4412282;32;20090;-80
2023/06/06 01:14:21;;;;;;;11.23;5.43;;;;;;;19.97;96.89;98039.41;4426300;32;20143;-80
2023/06/06 01:16:52;;;;;;;13.10;5.97;;;;;;;20.34;95.66;98042.47;4405192;32;229723;-80
2023/06/06 01:19:27;;;;;;;12.27;5.55;;;;;;;20.93;92.42;98047.13;4426353;32;20163;-80
2023/06/06 01:21:58;;;;;;;12.37;5.20;;;;;;;20.48;93.82;98044.81;4412833;32;20090;-80
2023/06/06 01:24:27;;;;;;;11.35;5.97;;;;;;;20.79;92.88;98050.94;4412052;32;20089;-80
2023/06/06 01:26:56;;;;;;;12.65;5.20;;;;;;;21.36;89.34;98046.94;4426163;32;20443;-80
2023/06/06 01:29:23;;;;;;;12.18;5.53;;;;;;;21.05;89.48;98044.31;4426056;32;20093;-80
2023/06/06 01:32:04;;;;;;;10.93;5.70;;;;;;;20.40;93.40;98047.19;4425778;32;20134;-80
2023/06/06 01:34:38;;;;;;;11.07;6.05;;;;;;;21.04;90.11;98050.50;4426239;32;20149;-80
2023/06/06 01:37:11;;;;;;;12.68;5.97;;;;;;;20.83;90.77;98048.88;4426169;32;20163;-80
2023/06/06 01:39:40;;;;;;;12.25;5.97;;;;;;;20.88;92.25;98044.91;4425695;32;20177;-80
2023/06/06 01:42:07;;;;;;;10.90;5.75;;;;;;;21.35;88.68;98047.91;4426237;32;20086;-80
2023/06/06 01:44:35;;;;;;;14.48;6.62;;;;;;;21.72;86.14;98045.53;4399665;32;20089;-80
2023/06/06 01:47:02;;;;;;;11.88;6.20;;;;;;;20.20;94.94;98039.22;4425864;32;20415;-80
2023/06/06 01:49:31;;;;;;;14.87;6.40;;;;;;;21.44;87.72;98041.84;4412288;32;20109;-80
2023/06/06 01:51:57;;;;;;;12.77;6.18;;;;;;;21.42;87.49;98038.53;4411957;32;20098;-81
2023/06/06 01:54:26;;;;;;;14.05;6.22;;;;;;;21.86;83.70;98033.78;4425961;32;20142;-80
2023/06/06 01:56:53;;;;;;;13.60;6.05;;;;;;;22.42;81.41;98039.22;4425952;32;20095;-80
2023/06/06 01:59:20;;;;;;;16.20;6.47;;;;;;;22.52;80.50;98032.16;4425572;32;20461;-80
2023/06/06 02:01:47;;;;;;;11.77;6.20;;;;;;;22.73;79.35;98025.88;4426068;32;20153;-80
2023/06/06 02:04:14;;;;;;;13.27;6.35;;;;;;;22.86;78.30;98031.69;4425952;32;20109;-80
2023/06/06 02:06:41;;;;;;;11.65;5.50;;;;;;;23.01;77.66;98034.69;4424665;32;20695;-80
2023/06/06 02:09:08;;;;;;;12.70;5.97;;;;;;;22.73;78.68;98042.50;4425655;32;20133;-80
2023/06/06 02:11:35;;;;;;;12.77;5.55;;;;;;;22.70;79.06;98034.06;4425928;32;20085;-80
2023/06/06 02:14:02;;;;;;;11.63;5.15;;;;;;;23.19;76.03;98035.63;4425508;32;20415;-81
2023/06/06 02:16:29;;;;;;;11.05;5.50;;;;;;;23.20;75.95;98031.19;4425895;32;20090;-80
2023/06/06 02:18:57;;;;;;;13.23;5.40;;;;;;;23.28;75.53;98036.53;4425976;32;20093;-80
2023/06/06 02:21:23;;;;;;;12.68;5.60;;;;;;;23.65;73.83;98033.87;4425411;32;20098;-81
2023/06/06 02:23:50;;;;;;;14.07;5.40;;;;;;;23.50;74.17;98037.94;4426032;32;20143;-81
2023/06/06 02:26:17;;;;;;;10.02;5.30;;;;;;;23.62;73.67;98037.63;4425808;32;20106;-81
2023/06/06 02:28:44;;;;;;;14.05;5.87;;;;;;;23.55;73.78;98036.53;4425240;32;20531;-81
2023/06/06 02:31:14;;;;;;;14.63;5.57;;;;;;;23.21;74.71;98035.47;4425760;32;20108;-80
2023/06/06 02:33:41;;;;;;;12.60;5.45;;;;;;;23.29;74.15;98051.38;4425855;32;20104;-80
2023/06/06 02:36:08;;;;;;;13.68;6.75;;;;;;;23.22;74.36;98048.47;4425484;32;20376;-81
2023/06/06 02:38:35;;;;;;;13.32;6.87;;;;;;;22.85;75.95;98043.19;4425783;32;20140;-80
2023/06/06 02:41:02;;;;;;;13.75;7.15;;;;;;;23.21;74.19;98059.16;4425258;32;20108;-80
2023/06/06 02:43:29;;;;;;;15.00;7.50;;;;;;;22.41;79.08;98053.34;4425686;32;20098;-80
2023/06/06 02:45:56;;;;;;;15.75;7.35;;;;;;;22.69;77.36;98038.50;4425633;32;20081;-80
2023/06/06 02:48:23;;;;;;;13.25;7.47;;;;;;;22.96;76.16;98050.06;4425222;32;20216;-80
2023/06/06 02:50:50;;;;;;;15.98;7.57;;;;;;;22.70;77.14;98041.97;4425555;32;20459;-80
2023/06/06 02:53:18;;;;;;;15.63;7.53;;;;;;;22.42;78.66;98046.28;4425579;32;20098;-80
2023/06/06 02:55:45;;;;;;;14.18;7.68;;;;;;;22.92;77.27;98040.81;4425301;32;20098;-80
2023/06/06 02:58:27;;;;;;;17.87;7.60;;;;;;;22.86;77.04;98046.62;4425554;32;20098;-80
2023/06/06 03:00:55;;;;;;;13.05;6.35;;;;;;;22.71;77.23;98046.25;4425538;32;20153;-80
2023/06/06 03:03:23;;;;;;;13.43;6.25;;;;;;;22.89;76.09;98046.38;4425209;32;20108;-80
2023/06/06 03:05:54;;;;;;;12.75;6.15;;;;;;;22.93;76.78;98045.94;4411831;32;20102;-80
2023/06/06 03:08:22;;;;;;;14.95;6.62;;;;;;;22.90;77.36;98050.66;4425629;32;20151;-80
2023/06/06 03:10:51;;;;;;;15.98;7.12;;;;;;;22.87;78.15;98051.78;4424922;32;20556;-80
2023/06/06 03:13:18;;;;;;;13.27;6.75;;;;;;;22.50;79.92;98059.56;4425552;32;20094;-80
2023/06/06 03:15:45;;;;;;;12.98;6.50;;;;;;;22.94;77.07;98050.22;4425563;32;20106;-80
2023/06/06 03:18:16;;;;;;;14.25;6.40;;;;;;;23.74;72.95;98056.69;4424745;32;20097;-80
2023/06/06 03:20:45;;;;;;;16.87;6.45;;;;;;;23.37;74.57;98044.38;4425389;32;20105;-80
2023/06/06 03:23:12;;;;;;;15.32;6.65;;;;;;;22.30;79.52;98055.28;4425055;32;20145;-80
2023/06/06 03:25:43;;;;;;;14.75;6.65;;;;;;;22.98;77.44;98048.16;4425491;32;20102;-80
2023/06/06 03:28:11;;;;;;;15.80;6.30;;;;;;;23.22;76.16;98055.53;4425355;32;20085;-80
2023/06/06 03:30:38;;;;;;;16.60;6.93;;;;;;;23.31;75.57;98044.16;4424985;32;20093;-80
2023/06/06 03:33:06;;;;;;;16.92;7.32;;;;;;;23.65;74.00;98050.50;4425288;32;20158;-80
2023/06/06 03:35:34;;;;;;;13.62;6.45;;;;;;;24.19;70.21;98058.47;4425432;32;20112;-80
2023/06/06 03:38:02;;;;;;;15.93;6.68;;;;;;;23.28;73.92;98055.78;4411214;32;20428;-80
2023/06/06 03:40:28;;;;;;;12.60;6.82;;;;;;;23.65;73.12;98058.41;4411493;32;20093;-80
2023/06/06 03:42:56;;;;;;;15.68;6.75;;;;;;;23.41;74.26;98057.28;4425227;32;20081;-80
2023/06/06 03:45:23;;;;;;;12.60;6.30;;;;;;;23.60;73.80;98058.00;4425131;32;20184;-80
2023/06/06 03:47:51;;;;;;;12.65;6.90;;;;;;;23.21;75.23;98057.34;4425324;32;20120;-80
2023/06/06 03:50:19;;;;;;;17.67;6.97;;;;;;;22.95;76.39;98054.50;4411589;32;20090;-80
2023/06/06 03:52:46;;;;;;;14.30;6.82;;;;;;;23.00;76.11;98052.28;4424848;32;20433;-80
2023/06/06 03:55:13;;;;;;;14.60;6.70;;;;;;;23.79;73.19;98064.97;4425172;32;20086;-80
2023/06/06 03:57:40;;;;;;;17.98;6.90;;;;;;;23.76;73.24;98061.81;4425228;32;20121;-80
2023/06/06 04:00:10;;;;;;;15.77;6.93;;;;;;;23.54;74.58;98061.22;4424735;32;20173;-80
2023/06/06 04:02:38;;;;;;;16.48;7.62;;;;;;;23.78;74.00;98060.69;4425126;32;20078;-80
2023/06/06 04:05:06;;;;;;;16.05;7.15;;;;;;;23.31;77.00;98058.13;4424872;32;20428;-80
2023/06/06 04:07:33;;;;;;;15.95;8.05;;;;;;;23.13;77.86;98062.50;4425185;32;20154;-80
2023/06/06 04:10:01;;;;;;;15.23;7.45;;;;;;;22.92;79.48;98060.06;4410905;32;20096;-80
2023/06/06 04:12:28;;;;;;;13.88;7.37;;;;;;;23.13;78.97;98065.13;4411080;32;20090;-80
2023/06/06 04:14:55;;;;;;;14.10;6.82;;;;;;;23.36;76.85;98063.78;4425116;32;20108;-80
2023/06/06 04:17:24;;;;;;;12.07;6.60;;;;;;;23.22;78.21;98063.44;4425055;32;20172;-80
2023/06/06 04:19:51;;;;;;;14.95;6.97;;;;;;;23.66;76.60;98061.88;4424492;32;20094;-80
2023/06/06 04:22:19;;;;;;;16.17;6.87;;;;;;;23.44;78.04;98056.97;4424986;32;20069;-80
2023/06/06 04:24:46;;;;;;;14.55;6.70;;;;;;;23.87;76.42;98058.97;4411056;32;20504;-80
2023/06/06 04:27:16;;;;;;;13.05;6.68;;;;;;;24.33;73.82;98060.59;4424574;32;20092;-80
2023/06/06 04:29:44;;;;;;;15.98;6.57;;;;;;;24.53;72.92;98058.63;4423638;32;20101;-80
2023/06/06 04:32:18;;;;;;;15.77;6.60;;;;;;;24.05;74.52;98053.72;4424840;32;20093;-80
2023/06/06 04:34:46;;;;;;;14.85;6.90;;;;;;;23.91;75.28;98061.16;4424592;32;20101;-80
2023/06/06 04:37:17;;;;;;;13.02;6.43;;;;;;;23.72;77.27;98063.94;4424834;32;20179;-80
2023/06/06 04:39:44;;;;;;;13.62;7.20;;;;;;;22.53;83.66;98064.53;4424811;32;20105;-80
2023/06/06 04:42:12;;;;;;;13.88;6.97;;;;;;;22.83;82.66;98060.88;4424494;32;20101;-80
2023/06/06 04:44:42;;;;;;;13.82;6.62;;;;;;;23.30;79.80;98059.13;4424765;32;20090;-80
2023/06/06 04:47:10;;;;;;;12.55;6.40;;;;;;;23.12;80.69;98055.56;4424781;32;20157;-80
2023/06/06 04:49:39;;;;;;;12.60;6.70;;;;;;;23.65;77.18;98049.69;4424485;32;20151;-80
2023/06/06 04:52:12;;;;;;;14.70;7.30;;;;;;;22.85;81.55;98053.69;4424679;32;20433;-80
2023/06/06 04:54:40;;;;;;;14.32;7.43;;;;;;;23.17;80.43;98055.13;4424417;32;20120;-80
2023/06/06 04:57:08;;;;;;;14.30;6.93;;;;;;;22.92;81.64;98051.34;4424661;32;20112;-80
2023/06/06 04:59:37;;;;;;;13.40;7.22;;;;;;;23.09;79.66;98054.06;4424341;32;20118;-80
2023/06/06 05:02:06;;;;;;;16.02;8.57;;;;;;;22.23;86.74;98058.47;4424141;32;20126;-80
2023/06/06 05:04:33;;;;;;;16.58;7.60;;;;;;;22.04;87.17;98062.84;4424393;32;20437;-80
2023/06/06 05:07:00;;;;;;;18.45;8.40;;;;;;;22.51;84.36;98069.94;4424462;32;20158;-80
2023/06/06 05:09:27;;;;;;;14.52;7.82;;;;;;;22.14;87.46;98067.19;4423627;32;20086;-80
2023/06/06 05:11:54;;;;;;;18.30;8.70;;;;;;;22.06;88.11;98067.03;4424464;32;20513;-80
2023/06/06 05:14:25;;;;;;;17.52;8.02;;;;;;;21.74;89.25;98067.22;4424280;32;20106;-80
2023/06/06 05:16:54;;;;;;;15.63;8.00;;;;;;;22.62;85.05;98071.56;4424019;32;20137;-80
2023/06/06 05:19:21;;;;;;;16.48;8.93;;;;;;;23.48;81.49;98068.84;4424068;32;20490;-80
2023/06/06 05:21:48;;;;;;;18.65;8.50;;;;;;;23.11;82.54;98071.50;4424135;32;20078;-80
2023/06/06 05:24:15;;;;;;;16.85;8.93;;;;;;;23.84;79.35;98073.28;4423760;32;20546;-80
2023/06/06 05:26:43;;;;;;;15.75;8.48;;;;;;;23.86;77.17;98070.50;4424172;32;20150;-80
2023/06/06 05:29:10;;;;;;;14.38;8.18;;;;;;;23.53;79.76;98070.09;4424038;32;20094;-80
2023/06/06 05:31:37;;;;;;;14.77;8.60;;;;;;;23.36;80.41;98070.84;4423704;32;20571;-80
2023/06/06 05:34:04;;;;;;;16.37;8.15;;;;;;;23.47;77.54;98065.41;4424026;32;20105;-80
2023/06/06 05:36:31;;;;;;;15.30;8.50;;;;;;;23.93;74.71;98068.94;4423632;32;20105;-80
2023/06/06 05:38:59;;;;;;;16.45;8.23;;;;;;;23.25;78.30;98068.41;4423900;32;20104;-80
2023/06/06 05:41:26;;;;;;;18.48;8.30;;;;;;;23.18;77.56;98069.94;4425367;32;20126;-80
2023/06/06 05:43:53;;;;;;;18.35;8.52;;;;;;;22.70;82.54;98079.59;4425817;32;20112;-80
2023/06/06 05:46:20;;;;;;;17.65;8.82;;;;;;;22.20;86.41;98078.94;4426184;32;20135;-80
2023/06/06 05:48:47;;;;;;;21.33;10.35;;;;;;;23.08;81.78;98078.72;4426047;32;20151;-80
2023/06/06 05:51:15;;;;;;;15.50;8.95;;;;;;;22.27;85.02;98080.03;4425630;32;20078;-80
2023/06/06 05:53:44;;;;;;;18.17;9.13;;;;;;;23.00;81.09;98072.53;4425998;32;20089;-80
2023/06/06 05:56:16;;;;;;;16.10;9.32;;;;;;;23.03;81.36;98069.59;4412558;32;20097;-80
2023/06/06 05:58:49;;;;;;;18.27;10.65;;;;;;;23.14;81.09;98085.22;4426608;32;20486;-81
2023/06/06 06:01:17;;;;;;;20.00;10.00;;;;;;;23.17;80.44;98078.81;4434713;32;20098;-79
2023/06/06 06:03:44;;;;;;;19.10;10.07;;;;;;;22.53;82.82;98081.13;4429771;32;20090;-78
2023/06/06 06:06:11;;;;;;;18.45;10.20;;;;;;;22.72;82.61;98088.19;4431725;32;20444;-79
2023/06/06 06:08:38;;;;;;;21.05;11.23;;;;;;;23.03;81.23;98088.00;4426404;32;20101;-78
2023/06/06 06:11:07;;;;;;;19.20;10.98;;;;;;;22.36;86.28;98087.09;4428785;32;20082;-82
2023/06/06 06:13:36;;;;;;;19.37;10.32;;;;;;;23.19;82.21;98092.69;4426179;32;20116;-83
2023/06/06 06:16:03;;;;;;;18.77;9.90;;;;;;;23.95;77.62;98098.59;4426726;32;20393;-83
2023/06/06 06:18:30;;;;;;;18.95;10.38;;;;;;;24.07;75.81;98099.19;4428635;32;20090;-82
2023/06/06 06:20:57;;;;;;;21.87;10.32;;;;;;;23.80;77.79;98092.97;4427287;32;20126;-83
2023/06/06 06:23:24;;;;;;;18.37;10.20;;;;;;;23.46;79.11;98092.72;4427936;32;20102;-82
2023/06/06 06:25:51;;;;;;;19.15;10.30;;;;;;;23.36;79.73;98098.00;4433096;32;20074;-82
2023/06/06 06:28:24;;;;;;;18.52;11.23;;;;;;;23.48;79.65;98095.19;4419916;32;20089;-82
2023/06/06 06:30:51;;;;;;;17.92;10.93;;;;;;;22.97;82.19;98097.31;4432923;32;20119;-81
2023/06/06 06:33:22;;;;;;;18.42;9.82;;;;;;;23.69;79.46;98095.81;4435077;32;20062;-82
2023/06/06 06:35:49;;;;;;;14.93;8.88;;;;;;;23.60;78.58;98100.16;4426675;32;20089;-81
2023/06/06 06:38:24;;;;;;;17.60;8.98;;;;;;;23.79;77.46;98106.31;4438534;32;20062;-81
2023/06/06 06:40:53;;;;;;;15.30;8.38;;;;;;;23.22;80.00;98106.38;4431230;32;20149;-85
2023/06/06 06:43:20;;;;;;;16.05;8.93;;;;;;;22.44;83.22;98108.28;4425605;32;20437;-84
2023/06/06 06:45:47;;;;;;;15.52;9.02;;;;;;;22.51;85.17;98112.00;4425534;32;20101;-86
2023/06/06 06:48:13;;;;;;;15.25;8.65;;;;;;;22.70;84.68;98111.16;4425154;32;20085;-85
2023/06/06 06:50:40;;;;;;;15.45;8.75;;;;;;;23.23;81.41;98113.31;4426135;32;20436;-80
2023/06/06 06:53:09;;;;;;;17.60;10.05;;;;;;;23.51;78.64;98116.81;4425026;32;20165;-81
2023/06/06 06:55:38;;;;;;;16.33;9.40;;;;;;;22.81;82.69;98113.63;4425724;32;20148;-79
2023/06/06 06:58:08;;;;;;;17.60;9.85;;;;;;;22.98;80.46;98111.31;4425441;32;20082;-78
2023/06/06 07:01:05;;;;;;;17.52;9.38;;;;;;;22.60;85.47;98109.50;4424851;32;20086;-78
2023/06/06 07:03:34;;;;;;;16.92;9.10;;;;;;;22.79;84.56;98109.50;4411639;32;20362;-78
2023/06/06 07:06:05;;;;;;;15.98;8.52;;;;;;;23.51;80.98;98113.34;4425422;32;20089;-77
2023/06/06 07:08:32;;;;;;;15.85;8.55;;;;;;;23.25;81.27;98111.34;4425256;32;20141;-78
2023/06/06 07:10:59;;;;;;;16.15;8.32;;;;;;;23.49;81.23;98107.38;4424993;32;20107;-80
2023/06/06 07:13:25;;;;;;;14.90;8.07;;;;;;;23.62;81.47;98114.03;4427993;32;20105;-79
2023/06/06 07:15:52;;;;;;;13.05;7.75;;;;;;;24.61;75.44;98110.63;4425195;32;20093;-78
2023/06/06 07:18:19;;;;;;;13.60;7.93;;;;;;;24.85;73.26;98112.59;4425472;32;20094;-78
2023/06/06 07:20:46;;;;;;;14.70;7.60;;;;;;;23.07;81.70;98103.37;4425500;32;20165;-78
2023/06/06 07:23:13;;;;;;;15.68;7.12;;;;;;;24.18;78.50;98107.72;4425877;32;20310;-79
2023/06/06 07:25:41;;;;;;;14.82;7.57;;;;;;;25.15;72.00;98117.47;4426615;32;20101;-78
2023/06/06 07:28:10;;;;;;;12.70;7.47;;;;;;;23.99;75.92;98114.94;4425806;32;20539;-79
2023/06/06 07:30:37;;;;;;;14.40;7.05;;;;;;;25.34;71.93;98106.69;4428131;32;20104;-78
2023/06/06 07:33:04;;;;;;;16.37;7.20;;;;;;;25.90;67.75;98101.81;4419981;32;20114;-79
2023/06/06 07:35:32;;;;;;;13.30;7.70;;;;;;;25.05;71.60;98116.75;4432601;32;20074;-79
2023/06/06 07:38:02;;;;;;;12.98;7.28;;;;;;;25.95;66.68;98118.87;4431300;32;20058;-79
2023/06/06 07:40:30;;;;;;;13.85;7.62;;;;;;;25.65;67.88;98111.47;4426792;32;20085;-79
2023/06/06 07:42:59;;;;;;;11.77;6.85;;;;;;;24.68;72.26;98119.59;4426633;32;20436;-80
2023/06/06 07:45:26;;;;;;;13.80;7.10;;;;;;;25.34;69.41;98111.97;4425894;32;20113;-80
2023/06/06 07:47:54;;;;;;;11.98;6.00;;;;;;;26.14;65.62;98115.09;4425803;32;20153;-82
2023/06/06 07:50:21;;;;;;;11.90;6.50;;;;;;;26.84;63.11;98108.59;4424982;32;20097;-81
2023/06/06 07:52:48;;;;;;;12.37;6.37;;;;;;;27.17;61.35;98109.38;4425329;32;20115;-81
2023/06/06 07:55:16;;;;;;;12.20;6.60;;;;;;;27.30;62.28;98109.69;4425112;32;20094;-83
2023/06/06 07:57:45;;;;;;;12.32;6.57;;;;;;;26.57;62.51;98113.19;4425435;32;20082;-82
2023/06/06 08:00:13;;;;;;;11.95;6.35;;;;;;;26.11;65.23;98110.16;4425447;32;20081;-82
2023/06/06 08:02:40;;;;;;;11.15;6.30;;;;;;;26.15;64.94;98113.28;4426058;32;20090;-80
2023/06/06 08:05:08;;;;;;;10.55;5.70;;;;;;;26.70;63.02;98110.91;4425369;32;20082;-81
2023/06/06 08:07:38;;;;;;;11.48;5.60;;;;;;;26.76;61.50;98106.75;4425504;32;20140;-82
2023/06/06 08:10:06;;;;;;;14.93;6.50;;;;;;;26.95;60.09;98105.59;4425233;32;20069;-83
2023/06/06 08:12:33;;;;;;;12.20;5.82;;;;;;;26.67;64.95;98097.16;4425221;32;20135;-82
2023/06/06 08:15:00;;;;;;;11.12;5.85;;;;;;;27.43;60.36;98095.91;4411797;32;20121;-82
2023/06/06 08:17:27;;;;;;;11.43;5.53;;;;;;;26.85;60.27;98100.47;4425176;32;20168;-83
2023/06/06 08:19:55;;;;;;;13.35;6.18;;;;;;;27.31;58.77;98087.50;4424631;32;20125;-83
2023/06/06 08:22:22;;;;;;;11.40;6.07;;;;;;;27.25;60.40;98089.00;4424791;32;20453;-84
2023/06/06 08:24:49;;;;;;;14.00;6.18;;;;;;;26.75;61.13;98094.53;4410626;32;20102;-83
2023/06/06 08:27:17;;;;;;;11.15;5.45;;;;;;;27.61;58.12;98094.66;4424619;32;20160;-83
2023/06/06 08:29:43;;;;;;;10.88;5.85;;;;;;;27.16;58.93;98086.56;4410774;32;20082;-83
2023/06/06 08:32:12;;;;;;;11.20;6.10;;;;;;;26.60;61.87;98099.66;4424880;32;20140;-82
2023/06/06 08:34:39;;;;;;;10.77;5.93;;;;;;;26.08;62.71;98089.31;4411170;32;20125;-83
2023/06/06 08:37:06;;;;;;;10.95;5.90;;;;;;;26.41;60.63;98095.50;4424734;32;20077;-83
2023/06/06 08:39:33;;;;;;;11.10;6.10;;;;;;;26.61;61.13;98082.78;4424149;32;20144;-82
2023/06/06 08:42:00;;;;;;;12.15;6.25;;;;;;;26.31;62.54;98094.81;4411024;32;20120;-82
2023/06/06 08:44:26;;;;;;;12.82;6.10;;;;;;;26.66;63.33;98084.94;4424588;32;20094;-81
2023/06/06 08:46:57;;;;;;;14.85;6.40;;;;;;;26.10;63.67;98095.28;4424333;32;20098;-81
2023/06/06 08:49:25;;;;;;;14.98;6.12;;;;;;;26.58;63.24;98098.16;4424610;32;20149;-82
2023/06/06 08:51:51;;;;;;;12.32;6.25;;;;;;;25.89;65.91;98095.72;4425087;32;20165;-82
2023/06/06 08:54:19;;;;;;;13.50;6.20;;;;;;;25.86;66.20;98097.88;4411112;32;20227;-81
2023/06/06 08:56:47;;;;;;;12.20;6.30;;;;;;;25.07;71.51;98094.47;4411040;32;20098;-81
2023/06/06 08:59:15;;;;;;;12.55;5.97;;;;;;;25.23;69.89;98093.75;4424287;32;20077;-82
2023/06/06 09:01:43;;;;;;;11.07;6.12;;;;;;;25.54;71.13;98096.72;4424093;32;20093;-82
2023/06/06 09:04:13;;;;;;;11.10;6.22;;;;;;;25.22;69.37;98099.19;4411026;32;20169;-82
2023/06/06 09:06:44;;;;;;;10.57;6.20;;;;;;;25.02;72.60;98095.94;4424409;32;20077;-82
2023/06/06 09:09:12;;;;;;;10.82;5.75;;;;;;;25.47;70.46;98100.97;4423799;32;20100;-82
2023/06/06 09:11:40;;;;;;;12.37;6.40;;;;;;;25.12;71.12;98095.84;4424492;32;20152;-81
2023/06/06 09:14:07;;;;;;;12.40;6.35;;;;;;;25.18;70.29;98085.47;4423907;32;20102;-82
2023/06/06 09:16:34;;;;;;;13.10;6.87;;;;;;;25.96;68.53;98080.06;4412381;32;20108;-83
2023/06/06 09:19:03;;;;;;;11.85;5.72;;;;;;;26.16;67.83;98088.53;4426154;32;20081;-83
2023/06/06 09:21:33;;;;;;;11.23;5.60;;;;;;;26.36;68.19;98089.84;4426596;32;20145;-86
2023/06/06 09:24:00;;;;;;;13.60;6.12;;;;;;;26.48;64.73;98088.59;4426295;32;20116;-83
2023/06/06 09:26:29;;;;;;;10.15;5.82;;;;;;;26.03;65.14;98085.50;4412587;32;20151;-83
2023/06/06 09:28:56;;;;;;;12.18;6.05;;;;;;;25.93;65.75;98085.63;4425741;32;20152;-84
2023/06/06 09:31:30;;;;;;;11.05;5.62;;;;;;;26.01;66.10;98090.94;4399589;32;20114;-84
2023/06/06 09:33:58;;;;;;;11.85;6.18;;;;;;;26.86;64.31;98093.34;4412642;32;20155;-84
2023/06/06 09:36:29;;;;;;;11.98;6.07;;;;;;;27.07;61.91;98093.69;4411754;32;20105;-83
2023/06/06 09:39:08;;;;;;;11.45;5.95;;;;;;;27.59;59.22;98085.25;4426171;32;20105;-83
2023/06/06 09:41:45;;;;;;;10.57;5.47;;;;;;;27.44;59.73;98089.63;4426088;32;20098;-84
2023/06/06 09:44:24;;;;;;;12.35;5.82;;;;;;;27.09;59.27;98089.03;4412545;32;20101;-83
2023/06/06 09:47:01;;;;;;;11.88;5.78;;;;;;;26.84;59.72;98085.59;4427497;32;20086;-82
2023/06/06 09:49:36;;;;;;;11.07;5.78;;;;;;;27.01;59.51;98091.66;4427232;32;20089;-82
2023/06/06 09:52:04;;;;;;;11.12;5.70;;;;;;;26.62;60.34;98088.91;4426747;32;20054;-82
2023/06/06 09:54:32;;;;;;;12.23;6.37;;;;;;;27.15;59.48;98079.59;4412956;32;20137;-82
2023/06/06 09:56:59;;;;;;;13.60;6.57;;;;;;;25.97;64.46;98080.87;4426268;32;20115;-82
2023/06/06 09:59:26;;;;;;;16.17;6.97;;;;;;;26.90;60.49;98082.25;4413222;32;20078;-82
2023/06/06 10:01:59;;;;;;;12.27;7.10;;;;;;;26.47;64.14;98080.78;4413913;32;20154;-82
2023/06/06 10:04:26;;;;;;;13.93;7.10;;;;;;;25.52;68.49;98077.56;4413541;32;20114;-82
2023/06/06 10:06:57;;;;;;;12.80;6.80;;;;;;;25.29;68.72;98077.28;4427102;32;20502;-82
2023/06/06 10:09:24;;;;;;;12.23;6.85;;;;;;;25.95;66.12;98086.31;4427876;32;20077;-81
2023/06/06 10:11:51;;;;;;;12.15;6.93;;;;;;;25.26;69.60;98076.78;4428037;32;20098;-81
2023/06/06 10:14:19;;;;;;;14.95;7.07;;;;;;;24.56;72.65;98081.22;4426806;32;20164;-82
2023/06/06 10:16:46;;;;;;;12.10;6.97;;;;;;;24.16;77.79;98082.50;4412410;32;20164;-83
2023/06/06 10:19:13;;;;;;;11.70;6.82;;;;;;;24.44;74.46;98080.63;4426908;32;20086;-82
2023/06/06 10:21:41;;;;;;;12.95;7.47;;;;;;;24.43;75.06;98073.69;4426664;32;20453;-82
2023/06/06 10:24:08;;;;;;;13.62;7.87;;;;;;;24.87;74.31;98065.78;4426990;32;20140;-82
2023/06/06 10:26:46;;;;;;;12.70;7.40;;;;;;;24.90;72.33;98068.13;4426429;32;20820;-83
2023/06/06 10:29:29;;;;;;;13.68;7.28;;;;;;;24.14;77.19;98063.38;4426218;32;20569;-84
2023/06/06 10:31:58;;;;;;;13.13;7.05;;;;;;;24.79;72.69;98067.41;4412375;32;20110;-84
2023/06/06 10:34:33;;;;;;;13.48;7.68;;;;;;;25.02;72.32;98065.09;4412588;32;20123;-83
2023/06/06 10:37:17;;;;;;;13.98;8.00;;;;;;;24.22;76.41;98068.69;4411940;32;20411;-82
2023/06/06 10:39:48;;;;;;;12.93;7.70;;;;;;;24.94;74.07;98072.09;4411117;32;20115;-82
2023/06/06 10:42:15;;;;;;;13.68;7.78;;;;;;;25.36;71.46;98074.84;4425638;32;20116;-82
2023/06/06 10:44:45;;;;;;;12.70;7.70;;;;;;;25.32;71.08;98074.34;4425492;32;20098;-82
2023/06/06 10:47:35;;;;;;;12.18;7.32;;;;;;;25.52;68.62;98077.56;4425124;32;20107;-83
2023/06/06 10:50:02;;;;;;;11.82;7.40;;;;;;;25.54;69.25;98075.59;4425297;32;20149;-83
2023/06/06 10:52:29;;;;;;;14.32;7.70;;;;;;;25.35;70.14;98073.19;4425269;32;20102;-84
2023/06/06 10:54:58;;;;;;;13.13;7.30;;;;;;;25.39;70.00;98072.69;4426256;32;20102;-84
2023/06/06 10:57:25;;;;;;;13.25;7.70;;;;;;;25.21;74.96;98069.34;4425492;32;20494;-85
2023/06/06 10:59:52;;;;;;;12.60;6.90;;;;;;;26.50;68.13;98069.91;4411265;32;20100;-85
2023/06/06 11:02:35;;;;;;;13.40;6.97;;;;;;;26.69;63.65;98069.56;4425393;32;20178;-83
2023/06/06 11:05:03;;;;;;;12.80;6.62;;;;;;;26.54;63.08;98073.84;4425462;32;20154;-85
2023/06/06 11:07:31;;;;;;;12.00;7.15;;;;;;;26.10;67.06;98076.75;4425074;32;20105;-85
2023/06/06 11:09:58;;;;;;;12.45;5.70;;;;;;;25.76;66.14;98071.56;4411377;32;20522;-84
2023/06/06 11:12:28;;;;;;;11.32;6.47;;;;;;;26.30;62.66;98074.66;4411558;32;20161;-84
2023/06/06 11:15:08;;;;;;;10.80;5.62;;;;;;;25.91;65.19;98075.22;4425082;32;20110;-85
2023/06/06 11:17:45;;;;;;;12.63;6.20;;;;;;;27.06;58.51;98084.09;4412174;32;20153;-84
2023/06/06 11:20:19;;;;;;;12.20;6.30;;;;;;;26.61;62.54;98071.38;4425000;32;20085;-85
2023/06/06 11:22:51;;;;;;;11.00;5.85;;;;;;;27.07;60.18;98067.19;4425258;32;20113;-84
2023/06/06 11:25:23;;;;;;;10.20;5.15;;;;;;;26.79;58.92;98051.66;4425206;32;20141;-85
2023/06/06 11:27:50;;;;;;;10.90;5.75;;;;;;;26.91;59.75;98060.09;4411418;32;20551;-85
2023/06/06 11:30:18;;;;;;;11.77;5.82;;;;;;;27.50;57.79;98065.91;4425106;32;20082;-85